sensor_id;sensor_type;location;lat;lon;timestamp;P1;durP1;ratioP1;P2;durP2;ratioP2
7539;SDS011;3811;49.006;12.076;2023-04-23T00:00:18;3.80;;;3.50;;
7539;SDS011;3811;49.006;12.076;2023-04-23T00:02:46;5.27;;;3.70;;
7539;SDS011;3811;49.006;12.076;2023-04-23T00:05:15;3.67;;;3.37;;
7539;SDS011;3811;49.006;12.076;2023-04-23T00:07:42;3.47;;;3.17;;
7539;SDS011;3811;49.006;12.076;2023-04-23T00:10:10;3.80;;;3.33;;
7539;SDS011;3811;49.006;12.076;2023-04-23T00:12:38;6.50;;;3.40;;
7539;SDS011;3811;49.006;12.076;2023-04-23T00:15:07;2.97;;;2.77;;
7539;SDS011;3811;49.006;12.076;2023-04-23T00:17:35;3.50;;;3.20;;
7539;SDS011;3811;49.006;12.076;2023-04-23T00:20:03;5.07;;;3.60;;
7539;SDS011;3811;49.006;12.076;2023-04-23T00:22:30;3.80;;;3.43;;
7539;SDS011;3811;49.006;12.076;2023-04-23T00:24:58;3.40;;;3.10;;
7539;SDS011;3811;49.006;12.076;2023-04-23T00:27:25;3.90;;;3.20;;
7539;SDS011;3811;49.006;12.076;2023-04-23T00:29:52;3.57;;;3.27;;
7539;SDS011;3811;49.006;12.076;2023-04-23T00:32:20;3.53;;;3.23;;
7539;SDS011;3811;49.006;12.076;2023-04-23T00:34:48;4.77;;;3.33;;
7539;SDS011;3811;49.006;12.076;2023-04-23T00:37:15;3.33;;;3.03;;
7539;SDS011;3811;49.006;12.076;2023-04-23T00:39:42;3.83;;;3.53;;
7539;SDS011;3811;49.006;12.076;2023-04-23T00:42:10;3.70;;;3.40;;
7539;SDS011;3811;49.006;12.076;2023-04-23T00:44:38;3.10;;;2.90;;
7539;SDS011;3811;49.006;12.076;2023-04-23T00:47:06;4.40;;;3.20;;
7539;SDS011;3811;49.006;12.076;2023-04-23T00:49:34;3.13;;;2.83;;
7539;SDS011;3811;49.006;12.076;2023-04-23T00:52:03;3.70;;;3.17;;
7539;SDS011;3811;49.006;12.076;2023-04-23T00:54:30;3.33;;;2.93;;
7539;SDS011;3811;49.006;12.076;2023-04-23T00:56:58;3.53;;;3.23;;
7539;SDS011;3811;49.006;12.076;2023-04-23T00:59:26;4.67;;;3.27;;
7539;SDS011;3811;49.006;12.076;2023-04-23T01:01:54;3.30;;;3.00;;
7539;SDS011;3811;49.006;12.076;2023-04-23T01:04:22;3.80;;;3.50;;
7539;SDS011;3811;49.006;12.076;2023-04-23T01:06:55;4.57;;;4.00;;
7539;SDS011;3811;49.006;12.076;2023-04-23T01:09:22;3.70;;;3.40;;
7539;SDS011;3811;49.006;12.076;2023-04-23T01:11:52;4.27;;;3.23;;
7539;SDS011;3811;49.006;12.076;2023-04-23T01:14:20;3.60;;;3.30;;
7539;SDS011;3811;49.006;12.076;2023-04-23T01:16:47;3.87;;;3.23;;
7539;SDS011;3811;49.006;12.076;2023-04-23T01:19:15;4.00;;;3.57;;
7539;SDS011;3811;49.006;12.076;2023-04-23T01:21:43;4.07;;;3.70;;
7539;SDS011;3811;49.006;12.076;2023-04-23T01:24:11;3.80;;;3.33;;
7539;SDS011;3811;49.006;12.076;2023-04-23T01:26:39;3.90;;;3.60;;
7539;SDS011;3811;49.006;12.076;2023-04-23T01:29:06;3.77;;;3.20;;
7539;SDS011;3811;49.006;12.076;2023-04-23T01:31:34;4.27;;;3.20;;
7539;SDS011;3811;49.006;12.076;2023-04-23T01:34:01;4.13;;;3.60;;
7539;SDS011;3811;49.006;12.076;2023-04-23T01:36:29;3.53;;;3.23;;
7539;SDS011;3811;49.006;12.076;2023-04-23T01:38:56;4.00;;;3.70;;
7539;SDS011;3811;49.006;12.076;2023-04-23T01:41:24;3.73;;;3.30;;
7539;SDS011;3811;49.006;12.076;2023-04-23T01:43:52;4.53;;;4.13;;
7539;SDS011;3811;49.006;12.076;2023-04-23T01:46:19;4.60;;;4.20;;
7539;SDS011;3811;49.006;12.076;2023-04-23T01:48:47;5.83;;;4.00;;
7539;SDS011;3811;49.006;12.076;2023-04-23T01:51:14;4.37;;;3.97;;
7539;SDS011;3811;49.006;12.076;2023-04-23T01:53:41;4.43;;;4.03;;
7539;SDS011;3811;49.006;12.076;2023-04-23T01:56:09;4.37;;;3.97;;
7539;SDS011;3811;49.006;12.076;2023-04-23T01:58:37;4.30;;;3.90;;
7539;SDS011;3811;49.006;12.076;2023-04-23T02:01:05;4.90;;;3.83;;
7539;SDS011;3811;49.006;12.076;2023-04-23T02:03:32;4.50;;;4.10;;
7539;SDS011;3811;49.006;12.076;2023-04-23T02:05:59;4.73;;;3.93;;
7539;SDS011;3811;49.006;12.076;2023-04-23T02:08:29;6.30;;;4.30;;
7539;SDS011;3811;49.006;12.076;2023-04-23T02:10:56;4.53;;;3.70;;
7539;SDS011;3811;49.006;12.076;2023-04-23T02:13:23;4.43;;;4.03;;
7539;SDS011;3811;49.006;12.076;2023-04-23T02:15:52;5.30;;;4.17;;
7539;SDS011;3811;49.006;12.076;2023-04-23T02:18:19;4.73;;;4.00;;
7539;SDS011;3811;49.006;12.076;2023-04-23T02:20:46;4.60;;;4.10;;
7539;SDS011;3811;49.006;12.076;2023-04-23T02:23:14;4.73;;;3.93;;
7539;SDS011;3811;49.006;12.076;2023-04-23T02:25:41;4.20;;;3.90;;
7539;SDS011;3811;49.006;12.076;2023-04-23T02:28:09;4.50;;;4.10;;
7539;SDS011;3811;49.006;12.076;2023-04-23T02:30:39;4.77;;;4.20;;
7539;SDS011;3811;49.006;12.076;2023-04-23T02:33:11;4.50;;;4.10;;
7539;SDS011;3811;49.006;12.076;2023-04-23T02:35:38;6.33;;;4.07;;
7539;SDS011;3811;49.006;12.076;2023-04-23T02:38:06;4.60;;;4.07;;
7539;SDS011;3811;49.006;12.076;2023-04-23T02:40:33;5.37;;;4.33;;
7539;SDS011;3811;49.006;12.076;2023-04-23T02:43:00;5.23;;;4.27;;
7539;SDS011;3811;49.006;12.076;2023-04-23T02:45:28;4.63;;;4.23;;
7539;SDS011;3811;49.006;12.076;2023-04-23T02:47:55;4.87;;;4.47;;
7539;SDS011;3811;49.006;12.076;2023-04-23T02:50:24;4.37;;;3.90;;
7539;SDS011;3811;49.006;12.076;2023-04-23T02:52:51;5.70;;;4.43;;
7539;SDS011;3811;49.006;12.076;2023-04-23T02:55:19;5.40;;;3.97;;
7539;SDS011;3811;49.006;12.076;2023-04-23T02:57:46;5.77;;;4.53;;
7539;SDS011;3811;49.006;12.076;2023-04-23T03:00:13;4.57;;;4.17;;
7539;SDS011;3811;49.006;12.076;2023-04-23T03:02:42;4.30;;;4.00;;
7539;SDS011;3811;49.006;12.076;2023-04-23T03:05:10;4.47;;;4.07;;
7539;SDS011;3811;49.006;12.076;2023-04-23T03:07:38;6.67;;;4.77;;
7539;SDS011;3811;49.006;12.076;2023-04-23T03:10:06;4.40;;;4.10;;
7539;SDS011;3811;49.006;12.076;2023-04-23T03:12:34;4.77;;;4.23;;
7539;SDS011;3811;49.006;12.076;2023-04-23T03:15:01;4.70;;;4.30;;
7539;SDS011;3811;49.006;12.076;2023-04-23T03:17:31;4.97;;;4.57;;
7539;SDS011;3811;49.006;12.076;2023-04-23T03:19:59;6.00;;;4.40;;
7539;SDS011;3811;49.006;12.076;2023-04-23T03:22:26;5.10;;;4.40;;
7539;SDS011;3811;49.006;12.076;2023-04-23T03:24:55;5.00;;;4.50;;
7539;SDS011;3811;49.006;12.076;2023-04-23T03:27:22;4.53;;;4.13;;
7539;SDS011;3811;49.006;12.076;2023-04-23T03:29:50;4.83;;;4.43;;
7539;SDS011;3811;49.006;12.076;2023-04-23T03:32:17;5.93;;;5.33;;
7539;SDS011;3811;49.006;12.076;2023-04-23T03:34:44;5.93;;;4.87;;
7539;SDS011;3811;49.006;12.076;2023-04-23T03:37:11;5.40;;;4.90;;
7539;SDS011;3811;49.006;12.076;2023-04-23T03:39:39;6.10;;;4.77;;
7539;SDS011;3811;49.006;12.076;2023-04-23T03:42:08;5.17;;;4.77;;
7539;SDS011;3811;49.006;12.076;2023-04-23T03:44:37;6.50;;;5.17;;
7539;SDS011;3811;49.006;12.076;2023-04-23T03:47:04;9.33;;;5.37;;
7539;SDS011;3811;49.006;12.076;2023-04-23T03:49:32;6.53;;;5.20;;
7539;SDS011;3811;49.006;12.076;2023-04-23T03:52:00;5.73;;;4.80;;
7539;SDS011;3811;49.006;12.076;2023-04-23T03:54:29;6.47;;;5.10;;
7539;SDS011;3811;49.006;12.076;2023-04-23T03:57:11;5.93;;;5.33;;
7539;SDS011;3811;49.006;12.076;2023-04-23T04:00:05;6.17;;;5.57;;
7539;SDS011;3811;49.006;12.076;2023-04-23T04:02:38;5.83;;;5.03;;
7539;SDS011;3811;49.006;12.076;2023-04-23T04:05:06;5.43;;;4.63;;
7539;SDS011;3811;49.006;12.076;2023-04-23T04:07:35;5.97;;;5.47;;
7539;SDS011;3811;49.006;12.076;2023-04-23T04:10:02;6.20;;;5.60;;
7539;SDS011;3811;49.006;12.076;2023-04-23T04:12:31;5.63;;;5.10;;
7539;SDS011;3811;49.006;12.076;2023-04-23T04:14:58;6.57;;;5.33;;
7539;SDS011;3811;49.006;12.076;2023-04-23T04:17:27;7.40;;;4.93;;
7539;SDS011;3811;49.006;12.076;2023-04-23T04:19:54;7.27;;;4.97;;
7539;SDS011;3811;49.006;12.076;2023-04-23T04:22:21;6.97;;;4.63;;
7539;SDS011;3811;49.006;12.076;2023-04-23T04:24:49;5.90;;;5.30;;
7539;SDS011;3811;49.006;12.076;2023-04-23T04:27:16;5.87;;;5.27;;
7539;SDS011;3811;49.006;12.076;2023-04-23T04:29:46;6.73;;;5.27;;
7539;SDS011;3811;49.006;12.076;2023-04-23T04:32:13;5.30;;;4.80;;
7539;SDS011;3811;49.006;12.076;2023-04-23T04:34:41;5.27;;;4.73;;
7539;SDS011;3811;49.006;12.076;2023-04-23T04:37:08;6.70;;;4.57;;
7539;SDS011;3811;49.006;12.076;2023-04-23T04:39:35;6.10;;;4.87;;
7539;SDS011;3811;49.006;12.076;2023-04-23T04:42:03;5.10;;;4.70;;
7539;SDS011;3811;49.006;12.076;2023-04-23T04:44:31;6.20;;;5.17;;
7539;SDS011;3811;49.006;12.076;2023-04-23T04:46:59;5.47;;;4.97;;
7539;SDS011;3811;49.006;12.076;2023-04-23T04:49:27;5.03;;;4.50;;
7539;SDS011;3811;49.006;12.076;2023-04-23T04:51:54;4.80;;;4.37;;
7539;SDS011;3811;49.006;12.076;2023-04-23T04:54:21;5.30;;;3.80;;
7539;SDS011;3811;49.006;12.076;2023-04-23T04:56:48;5.30;;;3.70;;
7539;SDS011;3811;49.006;12.076;2023-04-23T04:59:15;4.70;;;3.53;;
7539;SDS011;3811;49.006;12.076;2023-04-23T05:01:43;4.03;;;3.60;;
7539;SDS011;3811;49.006;12.076;2023-04-23T05:04:11;5.13;;;3.57;;
7539;SDS011;3811;49.006;12.076;2023-04-23T05:06:39;4.07;;;3.67;;
7539;SDS011;3811;49.006;12.076;2023-04-23T05:09:06;2.73;;;2.53;;
7539;SDS011;3811;49.006;12.076;2023-04-23T05:11:34;2.80;;;2.60;;
7539;SDS011;3811;49.006;12.076;2023-04-23T05:14:02;3.57;;;2.93;;
7539;SDS011;3811;49.006;12.076;2023-04-23T05:16:29;6.30;;;2.33;;
7539;SDS011;3811;49.006;12.076;2023-04-23T05:18:56;4.50;;;3.60;;
7539;SDS011;3811;49.006;12.076;2023-04-23T05:21:25;4.03;;;2.63;;
7539;SDS011;3811;49.006;12.076;2023-04-23T05:23:52;3.83;;;2.77;;
7539;SDS011;3811;49.006;12.076;2023-04-23T05:26:19;2.50;;;2.30;;
7539;SDS011;3811;49.006;12.076;2023-04-23T05:28:46;2.93;;;2.33;;
7539;SDS011;3811;49.006;12.076;2023-04-23T05:31:13;3.17;;;2.60;;
7539;SDS011;3811;49.006;12.076;2023-04-23T05:33:41;4.70;;;2.70;;
7539;SDS011;3811;49.006;12.076;2023-04-23T05:36:09;4.70;;;2.10;;
7539;SDS011;3811;49.006;12.076;2023-04-23T05:38:38;2.57;;;2.37;;
7539;SDS011;3811;49.006;12.076;2023-04-23T05:41:05;4.07;;;2.27;;
7539;SDS011;3811;49.006;12.076;2023-04-23T05:43:32;3.07;;;2.77;;
7539;SDS011;3811;49.006;12.076;2023-04-23T05:45:59;5.17;;;2.60;;
7539;SDS011;3811;49.006;12.076;2023-04-23T05:48:28;4.33;;;2.53;;
7539;SDS011;3811;49.006;12.076;2023-04-23T05:50:55;2.50;;;2.30;;
7539;SDS011;3811;49.006;12.076;2023-04-23T05:53:23;4.20;;;2.30;;
7539;SDS011;3811;49.006;12.076;2023-04-23T05:55:51;2.30;;;2.10;;
7539;SDS011;3811;49.006;12.076;2023-04-23T05:58:19;5.23;;;2.07;;
7539;SDS011;3811;49.006;12.076;2023-04-23T06:00:46;2.07;;;1.93;;
7539;SDS011;3811;49.006;12.076;2023-04-23T06:03:14;3.97;;;2.30;;
7539;SDS011;3811;49.006;12.076;2023-04-23T06:05:41;2.13;;;1.87;;
7539;SDS011;3811;49.006;12.076;2023-04-23T06:08:08;2.90;;;2.17;;
7539;SDS011;3811;49.006;12.076;2023-04-23T06:10:36;3.77;;;2.33;;
7539;SDS011;3811;49.006;12.076;2023-04-23T06:13:04;2.10;;;1.90;;
7539;SDS011;3811;49.006;12.076;2023-04-23T06:15:32;2.10;;;2.00;;
7539;SDS011;3811;49.006;12.076;2023-04-23T06:17:59;3.50;;;1.93;;
7539;SDS011;3811;49.006;12.076;2023-04-23T06:20:27;3.23;;;1.90;;
7539;SDS011;3811;49.006;12.076;2023-04-23T06:22:54;1.77;;;1.67;;
7539;SDS011;3811;49.006;12.076;2023-04-23T06:25:22;1.77;;;1.67;;
7539;SDS011;3811;49.006;12.076;2023-04-23T06:27:50;2.43;;;1.90;;
7539;SDS011;3811;49.006;12.076;2023-04-23T06:30:22;2.23;;;1.77;;
7539;SDS011;3811;49.006;12.076;2023-04-23T06:32:50;1.70;;;1.60;;
7539;SDS011;3811;49.006;12.076;2023-04-23T06:35:18;2.07;;;1.87;;
7539;SDS011;3811;49.006;12.076;2023-04-23T06:37:45;2.00;;;1.83;;
7539;SDS011;3811;49.006;12.076;2023-04-23T06:40:12;1.83;;;1.63;;
7539;SDS011;3811;49.006;12.076;2023-04-23T06:42:40;1.80;;;1.70;;
7539;SDS011;3811;49.006;12.076;2023-04-23T06:45:17;1.63;;;1.53;;
7539;SDS011;3811;49.006;12.076;2023-04-23T06:47:46;1.57;;;1.47;;
7539;SDS011;3811;49.006;12.076;2023-04-23T06:50:14;1.40;;;1.40;;
7539;SDS011;3811;49.006;12.076;2023-04-23T06:52:41;1.70;;;1.47;;
7539;SDS011;3811;49.006;12.076;2023-04-23T06:55:09;1.90;;;1.80;;
7539;SDS011;3811;49.006;12.076;2023-04-23T06:57:36;1.53;;;1.30;;
7539;SDS011;3811;49.006;12.076;2023-04-23T07:00:04;1.93;;;1.30;;
7539;SDS011;3811;49.006;12.076;2023-04-23T07:02:36;2.10;;;1.40;;
7539;SDS011;3811;49.006;12.076;2023-04-23T07:05:05;1.47;;;1.37;;
7539;SDS011;3811;49.006;12.076;2023-04-23T07:07:32;2.03;;;1.43;;
7539;SDS011;3811;49.006;12.076;2023-04-23T07:10:01;2.83;;;1.40;;
7539;SDS011;3811;49.006;12.076;2023-04-23T07:12:28;1.50;;;1.40;;
7539;SDS011;3811;49.006;12.076;2023-04-23T07:14:56;1.40;;;1.30;;
7539;SDS011;3811;49.006;12.076;2023-04-23T07:17:23;1.50;;;1.40;;
7539;SDS011;3811;49.006;12.076;2023-04-23T07:19:50;1.50;;;1.40;;
7539;SDS011;3811;49.006;12.076;2023-04-23T07:22:18;1.60;;;1.50;;
7539;SDS011;3811;49.006;12.076;2023-04-23T07:24:46;1.40;;;1.30;;
7539;SDS011;3811;49.006;12.076;2023-04-23T07:27:13;1.53;;;1.47;;
7539;SDS011;3811;49.006;12.076;2023-04-23T07:29:40;1.90;;;1.60;;
7539;SDS011;3811;49.006;12.076;2023-04-23T07:32:07;2.80;;;1.50;;
7539;SDS011;3811;49.006;12.076;2023-04-23T07:34:35;1.53;;;1.43;;
7539;SDS011;3811;49.006;12.076;2023-04-23T07:37:02;1.70;;;1.57;;
7539;SDS011;3811;49.006;12.076;2023-04-23T07:39:31;1.60;;;1.50;;
7539;SDS011;3811;49.006;12.076;2023-04-23T07:41:58;2.97;;;1.70;;
7539;SDS011;3811;49.006;12.076;2023-04-23T07:44:26;1.73;;;1.60;;
7539;SDS011;3811;49.006;12.076;2023-04-23T07:46:53;3.13;;;2.03;;
7539;SDS011;3811;49.006;12.076;2023-04-23T07:49:20;6.17;;;3.40;;
7539;SDS011;3811;49.006;12.076;2023-04-23T07:51:47;1.53;;;1.47;;
7539;SDS011;3811;49.006;12.076;2023-04-23T07:54:15;1.83;;;1.73;;
7539;SDS011;3811;49.006;12.076;2023-04-23T07:56:43;3.77;;;3.17;;
7539;SDS011;3811;49.006;12.076;2023-04-23T07:59:11;2.13;;;1.90;;
7539;SDS011;3811;49.006;12.076;2023-04-23T08:01:38;4.50;;;3.10;;
7539;SDS011;3811;49.006;12.076;2023-04-23T08:04:06;1.83;;;1.73;;
7539;SDS011;3811;49.006;12.076;2023-04-23T08:06:33;2.50;;;1.40;;
7539;SDS011;3811;49.006;12.076;2023-04-23T08:09:00;1.53;;;1.43;;
7539;SDS011;3811;49.006;12.076;2023-04-23T08:11:30;1.73;;;1.63;;
7539;SDS011;3811;49.006;12.076;2023-04-23T08:13:59;4.23;;;3.83;;
7539;SDS011;3811;49.006;12.076;2023-04-23T08:16:26;1.47;;;1.40;;
7539;SDS011;3811;49.006;12.076;2023-04-23T08:18:54;3.00;;;2.80;;
7539;SDS011;3811;49.006;12.076;2023-04-23T08:21:22;2.53;;;2.00;;
7539;SDS011;3811;49.006;12.076;2023-04-23T08:23:51;2.50;;;2.30;;
7539;SDS011;3811;49.006;12.076;2023-04-23T08:26:18;5.60;;;4.27;;
7539;SDS011;3811;49.006;12.076;2023-04-23T08:28:45;2.73;;;2.53;;
7539;SDS011;3811;49.006;12.076;2023-04-23T08:31:14;3.27;;;2.70;;
7539;SDS011;3811;49.006;12.076;2023-04-23T08:33:41;2.30;;;2.00;;
7539;SDS011;3811;49.006;12.076;2023-04-23T08:36:09;2.03;;;1.80;;
7539;SDS011;3811;49.006;12.076;2023-04-23T08:38:36;2.53;;;1.80;;
7539;SDS011;3811;49.006;12.076;2023-04-23T08:41:04;5.80;;;5.20;;
7539;SDS011;3811;49.006;12.076;2023-04-23T08:43:37;1.80;;;1.70;;
7539;SDS011;3811;49.006;12.076;2023-04-23T08:46:10;2.23;;;1.60;;
7539;SDS011;3811;49.006;12.076;2023-04-23T08:48:40;2.10;;;2.00;;
7539;SDS011;3811;49.006;12.076;2023-04-23T08:51:07;1.87;;;1.77;;
7539;SDS011;3811;49.006;12.076;2023-04-23T08:53:35;2.83;;;1.70;;
7539;SDS011;3811;49.006;12.076;2023-04-23T08:56:03;1.77;;;1.67;;
7539;SDS011;3811;49.006;12.076;2023-04-23T08:58:31;2.30;;;1.80;;
7539;SDS011;3811;49.006;12.076;2023-04-23T09:00:58;2.00;;;1.80;;
7539;SDS011;3811;49.006;12.076;2023-04-23T09:03:26;2.43;;;1.90;;
7539;SDS011;3811;49.006;12.076;2023-04-23T09:05:55;2.93;;;2.17;;
7539;SDS011;3811;49.006;12.076;2023-04-23T09:08:23;3.13;;;2.00;;
7539;SDS011;3811;49.006;12.076;2023-04-23T09:10:50;2.93;;;2.00;;
7539;SDS011;3811;49.006;12.076;2023-04-23T09:13:19;1.83;;;1.70;;
7539;SDS011;3811;49.006;12.076;2023-04-23T09:15:47;1.93;;;1.73;;
7539;SDS011;3811;49.006;12.076;2023-04-23T09:18:14;2.10;;;1.90;;
7539;SDS011;3811;49.006;12.076;2023-04-23T09:20:42;1.80;;;1.53;;
7539;SDS011;3811;49.006;12.076;2023-04-23T09:23:12;1.70;;;1.60;;
7539;SDS011;3811;49.006;12.076;2023-04-23T09:25:40;2.47;;;2.07;;
7539;SDS011;3811;49.006;12.076;2023-04-23T09:28:07;2.00;;;1.77;;
7539;SDS011;3811;49.006;12.076;2023-04-23T09:30:37;3.37;;;1.70;;
7539;SDS011;3811;49.006;12.076;2023-04-23T09:33:06;2.63;;;1.97;;
7539;SDS011;3811;49.006;12.076;2023-04-23T09:35:33;2.20;;;2.00;;
7539;SDS011;3811;49.006;12.076;2023-04-23T09:38:01;2.10;;;1.83;;
7539;SDS011;3811;49.006;12.076;2023-04-23T09:40:33;2.60;;;1.90;;
7539;SDS011;3811;49.006;12.076;2023-04-23T09:43:02;1.93;;;1.83;;
7539;SDS011;3811;49.006;12.076;2023-04-23T09:45:31;4.50;;;1.90;;
7539;SDS011;3811;49.006;12.076;2023-04-23T09:48:00;2.00;;;1.90;;
7539;SDS011;3811;49.006;12.076;2023-04-23T09:50:31;2.10;;;1.90;;
7539;SDS011;3811;49.006;12.076;2023-04-23T09:52:59;2.47;;;2.00;;
7539;SDS011;3811;49.006;12.076;2023-04-23T09:55:27;2.00;;;1.77;;
7539;SDS011;3811;49.006;12.076;2023-04-23T09:57:57;2.17;;;2.03;;
7539;SDS011;3811;49.006;12.076;2023-04-23T10:00:24;3.97;;;3.00;;
7539;SDS011;3811;49.006;12.076;2023-04-23T10:02:54;2.47;;;2.27;;
7539;SDS011;3811;49.006;12.076;2023-04-23T10:05:22;2.90;;;2.13;;
7539;SDS011;3811;49.006;12.076;2023-04-23T10:07:49;1.93;;;1.80;;
7539;SDS011;3811;49.006;12.076;2023-04-23T10:10:17;2.20;;;2.10;;
7539;SDS011;3811;49.006;12.076;2023-04-23T10:12:45;2.10;;;2.00;;
7539;SDS011;3811;49.006;12.076;2023-04-23T10:15:14;2.20;;;2.00;;
7539;SDS011;3811;49.006;12.076;2023-04-23T10:17:41;2.17;;;2.07;;
7539;SDS011;3811;49.006;12.076;2023-04-23T10:20:09;2.10;;;2.00;;
7539;SDS011;3811;49.006;12.076;2023-04-23T10:22:38;2.07;;;1.97;;
7539;SDS011;3811;49.006;12.076;2023-04-23T10:25:09;2.63;;;2.43;;
7539;SDS011;3811;49.006;12.076;2023-04-23T10:27:37;2.10;;;2.00;;
7539;SDS011;3811;49.006;12.076;2023-04-23T10:30:06;2.90;;;2.70;;
7539;SDS011;3811;49.006;12.076;2023-04-23T10:32:35;2.70;;;2.50;;
7539;SDS011;3811;49.006;12.076;2023-04-23T10:35:02;2.63;;;2.43;;
7539;SDS011;3811;49.006;12.076;2023-04-23T10:37:30;2.80;;;2.60;;
7539;SDS011;3811;49.006;12.076;2023-04-23T10:40:00;3.07;;;2.87;;
7539;SDS011;3811;49.006;12.076;2023-04-23T10:42:35;2.70;;;2.50;;
7539;SDS011;3811;49.006;12.076;2023-04-23T10:45:06;3.50;;;3.20;;
7539;SDS011;3811;49.006;12.076;2023-04-23T10:47:35;4.30;;;3.90;;
7539;SDS011;3811;49.006;12.076;2023-04-23T10:50:16;3.97;;;3.43;;
7539;SDS011;3811;49.006;12.076;2023-04-23T10:52:44;4.20;;;3.90;;
7539;SDS011;3811;49.006;12.076;2023-04-23T10:55:15;4.37;;;4.07;;
7539;SDS011;3811;49.006;12.076;2023-04-23T10:57:54;4.40;;;4.10;;
7539;SDS011;3811;49.006;12.076;2023-04-23T11:00:22;4.80;;;4.50;;
7539;SDS011;3811;49.006;12.076;2023-04-23T11:02:51;4.40;;;4.00;;
7539;SDS011;3811;49.006;12.076;2023-04-23T11:05:18;4.80;;;4.50;;
7539;SDS011;3811;49.006;12.076;2023-04-23T11:08:01;4.30;;;4.00;;
7539;SDS011;3811;49.006;12.076;2023-04-23T11:10:29;4.30;;;4.00;;
7539;SDS011;3811;49.006;12.076;2023-04-23T11:12:57;4.33;;;4.03;;
7539;SDS011;3811;49.006;12.076;2023-04-23T11:15:24;4.83;;;4.43;;
7539;SDS011;3811;49.006;12.076;2023-04-23T11:18:02;4.30;;;4.00;;
7539;SDS011;3811;49.006;12.076;2023-04-23T11:20:29;4.33;;;4.00;;
7539;SDS011;3811;49.006;12.076;2023-04-23T11:22:56;4.83;;;4.30;;
7539;SDS011;3811;49.006;12.076;2023-04-23T11:25:24;4.50;;;4.20;;
7539;SDS011;3811;49.006;12.076;2023-04-23T11:27:53;4.27;;;3.97;;
7539;SDS011;3811;49.006;12.076;2023-04-23T11:30:22;4.20;;;3.90;;
7539;SDS011;3811;49.006;12.076;2023-04-23T11:32:50;4.23;;;3.93;;
7539;SDS011;3811;49.006;12.076;2023-04-23T11:35:20;4.30;;;3.90;;
7539;SDS011;3811;49.006;12.076;2023-04-23T11:37:48;4.10;;;3.80;;
7539;SDS011;3811;49.006;12.076;2023-04-23T11:40:16;3.83;;;3.53;;
7539;SDS011;3811;49.006;12.076;2023-04-23T11:42:44;3.27;;;2.97;;
7539;SDS011;3811;49.006;12.076;2023-04-23T11:45:16;3.13;;;2.93;;
7539;SDS011;3811;49.006;12.076;2023-04-23T11:47:44;3.40;;;3.13;;
7539;SDS011;3811;49.006;12.076;2023-04-23T11:50:15;3.77;;;3.47;;
7539;SDS011;3811;49.006;12.076;2023-04-23T11:52:45;3.40;;;3.20;;
7539;SDS011;3811;49.006;12.076;2023-04-23T11:55:14;3.30;;;3.10;;
7539;SDS011;3811;49.006;12.076;2023-04-23T11:57:42;3.40;;;3.20;;
7539;SDS011;3811;49.006;12.076;2023-04-23T12:00:10;3.30;;;3.00;;
7539;SDS011;3811;49.006;12.076;2023-04-23T12:02:48;3.30;;;3.00;;
7539;SDS011;3811;49.006;12.076;2023-04-23T12:05:19;2.90;;;2.73;;
7539;SDS011;3811;49.006;12.076;2023-04-23T12:07:49;2.93;;;2.67;;
7539;SDS011;3811;49.006;12.076;2023-04-23T12:10:17;2.33;;;2.23;;
7539;SDS011;3811;49.006;12.076;2023-04-23T12:12:49;2.60;;;2.50;;
7539;SDS011;3811;49.006;12.076;2023-04-23T12:15:17;3.10;;;2.80;;
7539;SDS011;3811;49.006;12.076;2023-04-23T12:17:47;2.50;;;2.40;;
7539;SDS011;3811;49.006;12.076;2023-04-23T12:20:15;2.63;;;2.53;;
7539;SDS011;3811;49.006;12.076;2023-04-23T12:22:43;2.20;;;2.10;;
7539;SDS011;3811;49.006;12.076;2023-04-23T12:25:12;3.28;;;3.08;;
7539;SDS011;3811;49.006;12.076;2023-04-23T12:27:40;2.80;;;2.60;;
7539;SDS011;3811;49.006;12.076;2023-04-23T12:30:09;2.20;;;2.10;;
7539;SDS011;3811;49.006;12.076;2023-04-23T12:32:37;2.50;;;2.40;;
7539;SDS011;3811;49.006;12.076;2023-04-23T12:35:04;2.47;;;2.38;;
7539;SDS011;3811;49.006;12.076;2023-04-23T12:37:34;2.70;;;2.60;;
7539;SDS011;3811;49.006;12.076;2023-04-23T12:40:03;2.77;;;2.67;;
7539;SDS011;3811;49.006;12.076;2023-04-23T12:42:33;2.90;;;2.70;;
7539;SDS011;3811;49.006;12.076;2023-04-23T12:45:05;2.70;;;2.60;;
7539;SDS011;3811;49.006;12.076;2023-04-23T12:47:33;2.67;;;2.57;;
7539;SDS011;3811;49.006;12.076;2023-04-23T12:50:00;2.33;;;2.23;;
7539;SDS011;3811;49.006;12.076;2023-04-23T12:52:29;2.30;;;2.20;;
7539;SDS011;3811;49.006;12.076;2023-04-23T12:54:57;2.03;;;1.93;;
7539;SDS011;3811;49.006;12.076;2023-04-23T12:57:25;2.00;;;1.90;;
7539;SDS011;3811;49.006;12.076;2023-04-23T12:59:54;2.13;;;2.03;;
7539;SDS011;3811;49.006;12.076;2023-04-23T13:02:22;2.00;;;1.90;;
7539;SDS011;3811;49.006;12.076;2023-04-23T13:04:50;1.77;;;1.67;;
7539;SDS011;3811;49.006;12.076;2023-04-23T13:07:18;1.70;;;1.60;;
7539;SDS011;3811;49.006;12.076;2023-04-23T13:09:46;1.70;;;1.70;;
7539;SDS011;3811;49.006;12.076;2023-04-23T13:12:13;1.83;;;1.73;;
7539;SDS011;3811;49.006;12.076;2023-04-23T13:14:41;2.47;;;1.90;;
7539;SDS011;3811;49.006;12.076;2023-04-23T13:17:09;1.35;;;1.35;;
7539;SDS011;3811;49.006;12.076;2023-04-23T13:19:37;1.75;;;1.65;;
7539;SDS011;3811;49.006;12.076;2023-04-23T13:22:04;1.40;;;1.30;;
7539;SDS011;3811;49.006;12.076;2023-04-23T13:24:31;1.00;;;1.00;;
7539;SDS011;3811;49.006;12.076;2023-04-23T13:26:59;1.70;;;1.60;;
7539;SDS011;3811;49.006;12.076;2023-04-23T13:29:26;1.35;;;1.35;;
7539;SDS011;3811;49.006;12.076;2023-04-23T13:31:54;1.25;;;1.25;;
7539;SDS011;3811;49.006;12.076;2023-04-23T13:34:23;1.50;;;1.40;;
7539;SDS011;3811;49.006;12.076;2023-04-23T13:36:50;1.15;;;1.15;;
7539;SDS011;3811;49.006;12.076;2023-04-23T13:39:18;1.48;;;1.40;;
7539;SDS011;3811;49.006;12.076;2023-04-23T13:41:45;0.98;;;0.98;;
7539;SDS011;3811;49.006;12.076;2023-04-23T13:44:12;1.48;;;1.38;;
7539;SDS011;3811;49.006;12.076;2023-04-23T13:46:40;1.23;;;1.20;;
7539;SDS011;3811;49.006;12.076;2023-04-23T13:49:07;1.43;;;1.33;;
7539;SDS011;3811;49.006;12.076;2023-04-23T13:51:36;1.33;;;1.30;;
7539;SDS011;3811;49.006;12.076;2023-04-23T13:54:03;1.20;;;1.20;;
7539;SDS011;3811;49.006;12.076;2023-04-23T13:56:31;1.40;;;1.30;;
7539;SDS011;3811;49.006;12.076;2023-04-23T13:58:58;1.20;;;1.20;;
7539;SDS011;3811;49.006;12.076;2023-04-23T14:01:28;1.13;;;1.13;;
7539;SDS011;3811;49.006;12.076;2023-04-23T14:03:55;1.53;;;1.43;;
7539;SDS011;3811;49.006;12.076;2023-04-23T14:06:22;1.13;;;1.13;;
7539;SDS011;3811;49.006;12.076;2023-04-23T14:08:52;1.80;;;1.10;;
7539;SDS011;3811;49.006;12.076;2023-04-23T14:11:19;1.50;;;1.40;;
7539;SDS011;3811;49.006;12.076;2023-04-23T14:13:47;1.30;;;1.30;;
7539;SDS011;3811;49.006;12.076;2023-04-23T14:16:14;1.30;;;1.20;;
7539;SDS011;3811;49.006;12.076;2023-04-23T14:18:42;1.42;;;1.33;;
7539;SDS011;3811;49.006;12.076;2023-04-23T14:21:09;1.20;;;1.10;;
7539;SDS011;3811;49.006;12.076;2023-04-23T14:23:43;1.33;;;1.20;;
7539;SDS011;3811;49.006;12.076;2023-04-23T14:26:27;1.50;;;1.40;;
7539;SDS011;3811;49.006;12.076;2023-04-23T14:28:56;1.30;;;1.30;;
7539;SDS011;3811;49.006;12.076;2023-04-23T14:31:27;1.60;;;1.50;;
7539;SDS011;3811;49.006;12.076;2023-04-23T14:33:55;1.67;;;1.58;;
7539;SDS011;3811;49.006;12.076;2023-04-23T14:36:24;2.05;;;1.88;;
7539;SDS011;3811;49.006;12.076;2023-04-23T14:38:51;2.00;;;1.90;;
7539;SDS011;3811;49.006;12.076;2023-04-23T14:41:18;2.43;;;1.80;;
7539;SDS011;3811;49.006;12.076;2023-04-23T14:43:47;1.70;;;1.60;;
7539;SDS011;3811;49.006;12.076;2023-04-23T14:46:14;1.25;;;1.25;;
7539;SDS011;3811;49.006;12.076;2023-04-23T14:48:41;1.63;;;1.52;;
7539;SDS011;3811;49.006;12.076;2023-04-23T14:51:09;1.30;;;1.30;;
7539;SDS011;3811;49.006;12.076;2023-04-23T14:53:36;2.28;;;2.17;;
7539;SDS011;3811;49.006;12.076;2023-04-23T14:56:04;1.90;;;1.80;;
7539;SDS011;3811;49.006;12.076;2023-04-23T14:58:31;2.53;;;2.38;;
7539;SDS011;3811;49.006;12.076;2023-04-23T15:01:00;1.80;;;1.70;;
7539;SDS011;3811;49.006;12.076;2023-04-23T15:03:27;1.35;;;1.35;;
7539;SDS011;3811;49.006;12.076;2023-04-23T15:05:55;1.48;;;1.48;;